Time;durP1;ratioP1;P1;durP2;ratioP2;P2;SDS_P1;SDS_P2;PMS_P1;PMS_P2;Temp;Humidity;BMP_temperature;BMP_pressure;BME280_temperature;BME280_humidity;BME280_pressure;Samples;Min_cycle;Max_cycle;Signal;HPM_P1;HPM_P2
2023/03/16 00:01:41;;;;;;;319.97;32.50;;;0.00;99.90;;;;;;6256858;22;20370;-86
2023/03/16 00:04:07;;;;;;;255.57;27.70;;;-0.10;99.90;;;;;;6284649;22;20366;-87
2023/03/16 00:06:33;;;;;;;79.03;18.13;;;-0.10;99.90;;;;;;6284466;22;20395;-85
2023/03/16 00:08:58;;;;;;;244.70;32.80;;;-0.10;99.90;;;;;;6284946;22;20371;-87
2023/03/16 00:11:25;;;;;;;209.50;31.97;;;-0.10;99.90;;;;;;6254478;22;20183;-86
2023/03/16 00:13:51;;;;;;;194.90;27.85;;;-0.20;99.90;;;;;;6283736;22;20482;-87
2023/03/16 00:16:17;;;;;;;236.13;30.77;;;;;;;;;;6256260;22;20172;-84
2023/03/16 00:18:42;;;;;;;227.85;30.42;;;-0.20;99.90;;;;;;6256356;22;20156;-84
2023/03/16 00:21:08;;;;;;;40.50;17.63;;;-0.20;99.90;;;;;;6254503;22;20152;-84
2023/03/16 00:23:35;;;;;;;38.63;17.17;;;-0.20;99.90;;;;;;6282779;22;20673;-85
2023/03/16 00:26:06;;;;;;;63.10;20.27;;;-0.30;99.90;;;;;;6256337;22;20828;-85
2023/03/16 00:28:36;;;;;;;135.85;23.40;;;-0.40;99.90;;;;;;6256305;22;20148;-85
2023/03/16 00:31:03;;;;;;;230.82;28.65;;;-0.40;99.90;;;;;;6279312;22;20178;-84
2023/03/16 00:33:29;;;;;;;97.50;22.38;;;0.80;99.90;;;;;;6282465;22;20140;-85
2023/03/16 00:36:01;;;;;;;118.37;20.90;;;-0.50;99.90;;;;;;6281070;22;20148;-85
2023/03/16 00:38:30;;;;;;;69.40;18.60;;;-0.50;99.90;;;;;;6252762;22;20152;-84
2023/03/16 00:40:55;;;;;;;25.80;15.40;;;-0.50;99.90;;;;;;6281883;22;20163;-85
2023/03/16 00:43:21;;;;;;;24.00;16.07;;;-0.60;99.90;;;;;;6281228;22;20566;-84
2023/03/16 00:45:47;;;;;;;30.50;17.10;;;;;;;;;;6281994;22;20133;-85
2023/03/16 00:48:13;;;;;;;32.20;16.30;;;;;;;;;;6280794;22;20162;-85
2023/03/16 00:50:38;;;;;;;33.03;15.43;;;-0.40;99.90;;;;;;6254428;22;20572;-85
2023/03/16 00:53:05;;;;;;;31.83;17.07;;;-0.40;99.90;;;;;;6284109;22;20144;-84
2023/03/16 00:55:31;;;;;;;37.95;17.55;;;-0.40;99.90;;;;;;6282153;22;20467;-84
2023/03/16 00:57:56;;;;;;;28.97;18.60;;;-0.40;99.90;;;;;;6252734;22;20179;-85
2023/03/16 01:00:25;;;;;;;27.53;16.60;;;-0.40;99.90;;;;;;6257519;22;20387;-86
2023/03/16 01:02:50;;;;;;;29.52;18.08;;;-0.40;99.90;;;;;;6256543;22;20194;-85
2023/03/16 01:05:17;;;;;;;32.57;17.23;;;;;;;;;;6278536;22;20962;-85
2023/03/16 01:07:44;;;;;;;32.55;18.75;;;;;;;;;;6280680;22;20193;-85
2023/03/16 01:10:10;;;;;;;36.28;16.05;;;-0.50;99.90;;;;;;6256173;22;20174;-85
2023/03/16 01:12:35;;;;;;;34.80;18.55;;;-0.60;99.90;;;;;;6253432;22;20158;-86
2023/03/16 01:15:01;;;;;;;29.80;17.70;;;-0.70;99.90;;;;;;6253087;22;20144;-85
2023/03/16 01:17:27;;;;;;;33.83;17.67;;;-0.70;99.90;;;;;;6252589;22;20207;-85
2023/03/16 01:19:53;;;;;;;49.43;26.57;;;;;;;;;;6277563;22;20214;-85
2023/03/16 01:22:19;;;;;;;47.45;25.48;;;-0.50;99.90;;;;;;6279542;22;20557;-86
2023/03/16 01:24:45;;;;;;;34.80;17.73;;;-0.50;99.90;;;;;;6280433;22;20156;-85
2023/03/16 01:27:11;;;;;;;32.13;18.10;;;;;;;;;;6281024;22;20460;-85
2023/03/16 01:29:38;;;;;;;38.45;17.92;;;-0.50;99.90;;;;;;6282029;22;20163;-85
2023/03/16 01:32:05;;;;;;;44.95;18.00;;;-0.60;99.90;;;;;;6283598;22;20517;-86
2023/03/16 01:34:32;;;;;;;33.38;17.10;;;-0.50;99.90;;;;;;6254348;22;20156;-85
2023/03/16 01:36:58;;;;;;;38.05;17.40;;;-0.50;99.90;;;;;;6265698;22;20267;-85
2023/03/16 01:39:23;;;;;;;35.10;17.73;;;-0.50;99.90;;;;;;6284212;22;20250;-85
2023/03/16 01:41:50;;;;;;;31.33;17.43;;;;;;;;;;6282152;22;20461;-86
2023/03/16 01:44:23;;;;;;;30.92;17.65;;;-0.30;99.90;;;;;;6281940;22;20175;-87
2023/03/16 01:46:49;;;;;;;36.42;19.65;;;-0.30;99.90;;;;;;6283669;22;20164;-86
2023/03/16 01:49:25;;;;;;;35.25;17.15;;;-0.30;99.90;;;;;;6307049;22;20156;-85
2023/03/16 01:52:01;;;;;;;34.10;18.70;;;-0.30;99.90;;;;;;6282941;22;20167;-85
2023/03/16 01:54:48;;;;;;;37.25;20.80;;;-0.30;99.90;;;;;;6284511;22;20140;-85
2023/03/16 01:57:20;;;;;;;31.25;18.50;;;-0.30;99.90;;;;;;6276660;22;20167;-86
2023/03/16 01:59:55;;;;;;;37.90;16.27;;;-0.40;99.90;;;;;;6302407;22;20178;-86
2023/03/16 02:02:25;;;;;;;41.60;19.00;;;-0.30;99.90;;;;;;6276327;22;20183;-86
2023/03/16 02:05:01;;;;;;;35.65;18.83;;;-0.30;99.90;;;;;;6275852;22;20223;-86
2023/03/16 02:07:30;;;;;;;41.38;20.85;;;-0.20;99.90;;;;;;6273309;22;20175;-85
2023/03/16 02:10:01;;;;;;;37.03;20.10;;;-0.20;99.90;;;;;;6279438;22;20163;-86
2023/03/16 02:12:27;;;;;;;40.90;21.45;;;-0.20;99.90;;;;;;6274886;22;20182;-86
2023/03/16 02:14:53;;;;;;;46.15;21.58;;;-0.30;99.90;;;;;;6275732;22;20679;-86
2023/03/16 02:17:21;;;;;;;37.40;18.80;;;-0.30;99.90;;;;;;6275715;22;20182;-85
2023/03/16 02:20:06;;;;;;;41.15;18.52;;;-0.30;99.90;;;;;;6279698;22;20519;-87
2023/03/16 02:22:34;;;;;;;28.70;18.27;;;-0.30;99.90;;;;;;6275291;22;20154;-86
2023/03/16 02:25:01;;;;;;;40.55;18.17;;;-0.40;99.90;;;;;;6277477;22;20136;-85
2023/03/16 02:27:38;;;;;;;34.35;17.95;;;-0.50;99.90;;;;;;6275075;22;20593;-84
2023/03/16 02:30:10;;;;;;;34.65;17.30;;;-0.50;99.90;;;;;;6283868;22;20477;-86
2023/03/16 02:32:38;;;;;;;35.20;17.63;;;-0.60;99.90;;;;;;6281583;22;20717;-85
2023/03/16 02:35:05;;;;;;;33.30;16.00;;;-0.60;99.90;;;;;;6279887;22;20154;-85
2023/03/16 02:37:33;;;;;;;29.83;15.55;;;-0.60;99.90;;;;;;6279444;22;20211;-84
2023/03/16 02:40:00;;;;;;;30.55;15.23;;;-0.70;99.90;;;;;;6284128;22;20491;-85
2023/03/16 02:42:28;;;;;;;26.05;15.52;;;-0.80;99.90;;;;;;6282410;22;20843;-86
2023/03/16 02:44:59;;;;;;;22.77;13.25;;;-0.80;99.90;;;;;;6283126;22;20159;-86
2023/03/16 02:47:39;;;;;;;25.27;14.52;;;-0.80;99.90;;;;;;6279417;22;20229;-86
2023/03/16 02:50:05;;;;;;;29.40;13.32;;;-0.50;99.90;;;;;;6280517;22;20380;-86
2023/03/16 02:52:36;;;;;;;25.80;14.05;;;0.00;99.90;;;;;;6278941;22;20222;-85
2023/03/16 02:55:03;;;;;;;18.55;11.48;;;0.20;99.90;;;;;;6279914;22;20767;-85
2023/03/16 02:57:30;;;;;;;25.10;14.07;;;0.40;99.90;;;;;;6280925;22;20160;-87
2023/03/16 02:59:56;;;;;;;28.77;15.35;;;0.30;99.90;;;;;;6280424;22;20144;-85
2023/03/16 03:02:21;;;;;;;38.20;14.80;;;0.40;99.90;;;;;;6282389;22;20179;-87
2023/03/16 03:04:47;;;;;;;30.97;16.43;;;;;;;;;;6280706;22;20227;-85
2023/03/16 03:07:14;;;;;;;33.47;19.37;;;0.40;99.90;;;;;;6281259;22;20489;-87
2023/03/16 03:09:41;;;;;;;30.83;16.83;;;0.80;99.90;;;;;;6280231;22;20413;-86
2023/03/16 03:12:11;;;;;;;30.50;15.80;;;0.40;99.90;;;;;;6286207;22;20222;-86
2023/03/16 03:14:38;;;;;;;27.77;15.02;;;;;;;;;;6307569;22;20148;-87
2023/03/16 03:17:08;;;;;;;24.48;13.55;;;0.50;99.90;;;;;;6284466;22;20814;-87
2023/03/16 03:19:34;;;;;;;29.27;14.40;;;0.50;99.90;;;;;;6285084;22;20152;-86
2023/03/16 03:22:03;;;;;;;32.40;17.63;;;0.60;99.90;;;;;;6283684;22;20151;-87
2023/03/16 03:24:30;;;;;;;31.30;17.63;;;0.60;99.90;;;;;;6284448;22;20175;-84
2023/03/16 03:26:56;;;;;;;24.30;15.07;;;0.60;99.90;;;;;;6285114;22;20171;-87
2023/03/16 03:29:22;;;;;;;19.80;10.07;;;;;;;;;;6282348;22;20547;-83
2023/03/16 03:31:47;;;;;;;16.30;9.63;;;0.60;99.90;;;;;;6279809;22;20167;-84
2023/03/16 03:34:13;;;;;;;25.83;13.10;;;0.70;99.90;;;;;;6280757;22;20703;-84
2023/03/16 03:36:38;;;;;;;26.80;15.30;;;0.70;99.90;;;;;;6277556;22;20259;-83
2023/03/16 03:39:04;;;;;;;22.67;13.30;;;0.70;99.90;;;;;;6279572;22;20174;-84
2023/03/16 03:41:31;;;;;;;22.57;11.90;;;0.80;99.90;;;;;;6251811;22;20156;-83
2023/03/16 03:43:58;;;;;;;23.35;13.52;;;0.80;99.90;;;;;;6276782;22;20668;-84
2023/03/16 03:46:24;;;;;;;23.65;11.13;;;0.90;99.90;;;;;;6250065;22;20190;-83
2023/03/16 03:48:49;;;;;;;20.87;8.73;;;0.90;99.90;;;;;;6277136;22;20152;-84
2023/03/16 03:51:15;;;;;;;23.03;11.77;;;0.90;99.90;;;;;;6249115;22;20423;-84
2023/03/16 03:53:40;;;;;;;28.80;12.00;;;0.90;99.90;;;;;;6249843;22;20152;-84
2023/03/16 03:56:07;;;;;;;18.50;10.30;;;;;;;;;;6251020;22;20217;-84
2023/03/16 03:58:32;;;;;;;21.27;11.18;;;0.90;99.90;;;;;;6248664;22;20159;-83
2023/03/16 04:00:58;;;;;;;23.90;13.70;;;0.90;99.90;;;;;;6277072;22;20152;-83
2023/03/16 04:03:23;;;;;;;22.20;10.60;;;0.90;99.90;;;;;;6277677;22;20538;-84
2023/03/16 04:05:49;;;;;;;12.00;6.83;;;0.90;99.90;;;;;;6251078;22;20148;-83
2023/03/16 04:08:14;;;;;;;8.80;6.83;;;0.90;99.90;;;;;;6278727;22;20805;-83
2023/03/16 04:10:40;;;;;;;17.43;9.80;;;0.80;99.90;;;;;;6279268;22;20699;-84
2023/03/16 04:13:05;;;;;;;17.10;9.93;;;0.90;99.90;;;;;;6276857;22;20132;-83
2023/03/16 04:15:33;;;;;;;17.10;10.03;;;0.80;99.90;;;;;;6278074;22;20140;-84
2023/03/16 04:17:58;;;;;;;16.05;9.25;;;0.80;99.90;;;;;;6279240;22;20210;-84
2023/03/16 04:20:24;;;;;;;18.93;8.30;;;0.80;99.90;;;;;;6250661;22;20207;-84
2023/03/16 04:22:57;;;;;;;12.93;7.60;;;0.80;99.90;;;;;;6250072;22;20382;-84
2023/03/16 04:25:24;;;;;;;21.13;10.55;;;0.90;99.90;;;;;;6277713;22;20132;-83
2023/03/16 04:27:50;;;;;;;18.75;11.10;;;0.90;99.90;;;;;;6278758;22;20164;-83
2023/03/16 04:30:16;;;;;;;18.52;8.43;;;0.80;99.90;;;;;;6278429;22;20144;-83
2023/03/16 04:32:41;;;;;;;18.43;9.37;;;0.80;99.90;;;;;;6276956;22;20148;-83
2023/03/16 04:35:08;;;;;;;17.23;8.77;;;0.90;99.90;;;;;;6277108;22;20178;-83
2023/03/16 04:37:33;;;;;;;15.60;9.43;;;0.80;99.90;;;;;;6278818;22;20197;-83
2023/03/16 04:39:59;;;;;;;14.17;8.87;;;0.80;99.90;;;;;;6254596;22;20870;-83
2023/03/16 04:42:24;;;;;;;22.13;10.10;;;0.70;99.90;;;;;;6255515;22;20209;-83
2023/03/16 04:44:50;;;;;;;20.70;11.13;;;0.80;99.90;;;;;;6256079;22;20163;-82
2023/03/16 04:47:16;;;;;;;26.90;10.70;;;0.90;99.90;;;;;;6280835;22;20174;-83
2023/03/16 04:49:42;;;;;;;15.47;7.60;;;0.90;99.90;;;;;;6281100;22;20152;-83
2023/03/16 04:52:08;;;;;;;20.93;11.10;;;0.80;99.90;;;;;;6251011;22;20433;-83
2023/03/16 04:54:34;;;;;;;18.23;9.40;;;0.90;99.90;;;;;;6250698;22;20140;-83
2023/03/16 04:57:02;;;;;;;14.50;9.10;;;0.90;99.90;;;;;;6277971;22;20243;-83
2023/03/16 04:59:28;;;;;;;24.00;11.65;;;0.90;99.90;;;;;;6249676;22;20148;-83
2023/03/16 05:01:54;;;;;;;16.60;10.52;;;0.80;99.90;;;;;;6281991;22;20147;-83
2023/03/16 05:04:20;;;;;;;20.30;11.60;;;0.80;99.90;;;;;;6283792;22;20182;-83
2023/03/16 05:06:46;;;;;;;18.83;9.35;;;0.70;99.90;;;;;;6280300;22;20175;-83
2023/03/16 05:09:12;;;;;;;21.70;11.40;;;0.80;99.90;;;;;;6283612;22;20152;-84
2023/03/16 05:11:38;;;;;;;22.55;10.35;;;0.70;99.90;;;;;;6283410;22;20198;-84
2023/03/16 05:14:04;;;;;;;19.25;12.20;;;0.70;99.90;;;;;;6256880;22;20144;-84
2023/03/16 05:16:30;;;;;;;19.77;12.13;;;0.70;99.90;;;;;;6281106;22;20217;-83
2023/03/16 05:19:00;;;;;;;28.17;12.50;;;0.70;99.90;;;;;;6253468;22;20148;-83
2023/03/16 05:21:26;;;;;;;20.20;11.98;;;0.70;99.90;;;;;;6253641;22;20148;-84
2023/03/16 05:23:51;;;;;;;20.02;11.73;;;0.60;99.90;;;;;;6281251;22;20151;-83
2023/03/16 05:26:17;;;;;;;21.13;10.20;;;0.60;99.90;;;;;;6253116;22;20228;-84
2023/03/16 05:28:44;;;;;;;35.53;14.03;;;;;;;;;;6282151;22;20162;-84
2023/03/16 05:31:09;;;;;;;21.00;12.43;;;0.70;99.90;;;;;;6278477;22;20858;-83
2023/03/16 05:33:35;;;;;;;20.90;12.67;;;;;;;;;;6250534;22;20139;-83
2023/03/16 05:38:30;;;;;;;23.10;12.93;;;;;;;;;;6281247;22;20183;-81
2023/03/16 05:41:00;;;;;;;19.27;13.50;;;0.70;99.90;;;;;;6252650;22;20156;-81
2023/03/16 05:43:27;;;;;;;27.52;13.15;;;0.80;99.90;;;;;;6248280;22;20160;-86
2023/03/16 05:45:53;;;;;;;26.45;13.55;;;0.80;99.90;;;;;;6276557;22;20182;-82
2023/03/16 05:48:20;;;;;;;23.00;12.87;;;0.80;99.90;;;;;;6273416;22;20202;-80
2023/03/16 05:50:45;;;;;;;23.17;13.25;;;0.80;99.90;;;;;;6250857;22;20242;-81
2023/03/16 05:53:11;;;;;;;26.37;13.60;;;0.80;99.90;;;;;;6248293;22;20453;-85
2023/03/16 05:55:36;;;;;;;28.03;15.27;;;0.90;99.90;;;;;;6249606;22;20381;-79
2023/03/16 05:58:02;;;;;;;27.23;14.33;;;1.10;99.90;;;;;;6249896;22;20507;-79
2023/03/16 06:00:28;;;;;;;27.90;13.23;;;1.70;99.90;;;;;;6246177;22;20150;-82
2023/03/16 06:02:53;;;;;;;23.70;13.93;;;2.20;99.90;;;;;;6277777;22;20156;-81
2023/03/16 06:05:23;;;;;;;24.53;12.07;;;2.80;99.90;;;;;;6273035;22;20370;-79
2023/03/16 06:07:50;;;;;;;18.05;10.82;;;2.80;99.90;;;;;;6249393;22;20198;-80
2023/03/16 06:10:16;;;;;;;21.48;12.40;;;2.60;99.90;;;;;;6276626;22;20259;-82
2023/03/16 06:12:41;;;;;;;20.37;12.33;;;2.70;99.90;;;;;;6277695;22;20159;-82
2023/03/16 06:15:09;;;;;;;21.53;12.43;;;2.70;99.90;;;;;;6249483;22;20366;-81
2023/03/16 06:17:36;;;;;;;22.25;12.57;;;2.90;99.90;;;;;;6249330;22;20164;-82
2023/03/16 06:20:04;;;;;;;21.38;11.85;;;3.10;99.90;;;;;;6249030;22;20147;-80
2023/03/16 06:22:29;;;;;;;24.50;13.10;;;3.40;99.90;;;;;;6276034;22;20148;-81
2023/03/16 06:24:55;;;;;;;19.43;12.00;;;3.60;99.90;;;;;;6249581;22;20189;-81
2023/03/16 06:27:20;;;;;;;19.13;12.90;;;3.50;99.90;;;;;;6249386;22;20186;-82
2023/03/16 06:29:46;;;;;;;22.90;12.03;;;3.60;99.90;;;;;;6276862;22;20147;-83
2023/03/16 06:32:13;;;;;;;21.27;12.00;;;3.60;99.90;;;;;;6250729;22;20171;-81
2023/03/16 06:34:40;;;;;;;18.60;10.40;;;4.30;99.90;;;;;;6249897;22;20144;-79
2023/03/16 06:37:06;;;;;;;18.40;11.05;;;4.80;99.90;;;;;;6277661;22;20187;-83
2023/03/16 06:39:32;;;;;;;21.00;11.73;;;;;;;;;;6278868;22;20193;-81
2023/03/16 06:41:57;;;;;;;20.50;12.63;;;5.20;99.90;;;;;;6278126;22;20594;-80
2023/03/16 06:44:23;;;;;;;16.63;9.53;;;5.40;99.90;;;;;;6278370;22;20378;-80
2023/03/16 06:46:49;;;;;;;15.37;9.40;;;5.50;99.90;;;;;;6250969;22;20494;-81
2023/03/16 06:49:14;;;;;;;19.90;10.23;;;5.90;99.90;;;;;;6277858;22;20148;-82
2023/03/16 06:51:40;;;;;;;19.20;10.33;;;6.30;99.90;;;;;;6277987;22;20167;-82
2023/03/16 06:54:06;;;;;;;18.90;9.60;;;7.40;99.90;;;;;;6276962;22;20174;-83
2023/03/16 06:56:32;;;;;;;17.23;9.93;;;7.60;99.90;;;;;;6250186;22;20172;-84
2023/03/16 06:58:57;;;;;;;17.93;10.63;;;8.50;99.90;;;;;;6249810;22;20156;-82
2023/03/16 07:01:23;;;;;;;15.10;7.50;;;9.30;99.90;;;;;;6250503;22;20198;-81
2023/03/16 07:03:48;;;;;;;18.10;9.13;;;9.30;99.90;;;;;;6251456;22;20160;-83
2023/03/16 07:06:15;;;;;;;13.73;9.37;;;9.30;99.90;;;;;;6249883;22;20526;-82
2023/03/16 07:08:41;;;;;;;13.07;8.45;;;9.80;99.90;;;;;;6248557;22;20417;-80
2023/03/16 07:11:07;;;;;;;16.53;9.13;;;7.90;99.90;;;;;;6249838;22;20180;-81
2023/03/16 07:13:34;;;;;;;14.47;9.40;;;7.30;99.90;;;;;;6250085;22;20449;-82
2023/03/16 07:16:00;;;;;;;13.98;10.02;;;7.10;99.90;;;;;;6278161;22;20401;-80
2023/03/16 07:18:26;;;;;;;14.70;8.80;;;7.60;99.90;;;;;;6250210;22;20152;-81
2023/03/16 07:20:53;;;;;;;15.70;9.53;;;8.00;99.90;;;;;;6278153;22;20375;-84
2023/03/16 07:23:19;;;;;;;16.05;9.98;;;9.10;99.90;;;;;;6250999;22;20378;-82
2023/03/16 07:25:44;;;;;;;14.27;8.70;;;9.90;99.90;;;;;;6251381;22;20156;-82
2023/03/16 07:28:10;;;;;;;10.37;6.97;;;11.80;99.90;;;;;;6249981;22;20451;-83
2023/03/16 07:30:36;;;;;;;13.80;8.90;;;11.60;99.90;;;;;;6278911;22;20412;-82
2023/03/16 07:33:02;;;;;;;13.23;9.20;;;12.40;99.90;;;;;;6276659;22;20176;-82
2023/03/16 07:35:28;;;;;;;16.30;9.07;;;12.40;99.90;;;;;;6249612;22;20148;-88
2023/03/16 07:37:54;;;;;;;15.98;8.63;;;11.70;99.90;;;;;;6277060;22;20402;-84
2023/03/16 07:40:19;;;;;;;17.20;9.33;;;11.50;99.90;;;;;;6276719;22;20140;-82
2023/03/16 07:42:45;;;;;;;16.70;8.60;;;11.70;99.90;;;;;;6249471;22;20206;-84
2023/03/16 07:45:11;;;;;;;10.77;5.53;;;11.70;99.90;;;;;;6250043;22;20175;-82
2023/03/16 07:47:36;;;;;;;12.75;8.10;;;11.20;99.90;;;;;;6277347;22;20505;-81
2023/03/16 07:50:02;;;;;;;11.97;7.07;;;11.00;99.90;;;;;;6277713;22;20235;-85
2023/03/16 07:52:28;;;;;;;14.80;8.30;;;;;;;;;;6249511;22;20399;-82
2023/03/16 07:54:54;;;;;;;15.47;8.80;;;9.50;99.90;;;;;;6277133;22;20144;-88
2023/03/16 07:57:20;;;;;;;10.40;8.15;;;10.30;99.90;;;;;;6276691;22;20516;-86
2023/03/16 07:59:46;;;;;;;14.27;9.25;;;10.80;99.90;;;;;;6250941;22;20494;-80
2023/03/16 08:02:13;;;;;;;12.30;7.70;;;11.50;99.90;;;;;;6249480;22;20212;-83
2023/03/16 08:04:41;;;;;;;13.35;7.65;;;12.60;99.90;;;;;;6276904;22;20144;-80
2023/03/16 08:07:08;;;;;;;12.63;8.70;;;13.10;99.90;;;;;;6276767;22;20164;-82
2023/03/16 08:09:34;;;;;;;15.88;9.23;;;13.10;99.90;;;;;;6250049;22;20152;-79
2023/03/16 08:12:01;;;;;;;15.95;9.15;;;13.20;99.90;;;;;;6276461;22;20164;-85
2023/03/16 08:14:26;;;;;;;12.90;8.90;;;13.40;99.30;;;;;;6276544;22;20523;-82
2023/03/16 08:16:53;;;;;;;13.10;8.33;;;13.90;98.60;;;;;;6277834;22;20170;-85
2023/03/16 08:19:19;;;;;;;13.73;8.88;;;12.80;98.60;;;;;;6250231;22;20148;-86
2023/03/16 08:21:44;;;;;;;9.43;6.70;;;12.20;99.00;;;;;;6250467;22;20163;-82
2023/03/16 08:24:10;;;;;;;12.63;7.40;;;12.40;99.80;;;;;;6250339;22;20155;-84
2023/03/16 08:26:36;;;;;;;14.30;7.70;;;13.00;98.40;;;;;;6250150;22;20202;-83
2023/03/16 08:29:02;;;;;;;13.00;7.70;;;14.10;97.90;;;;;;6276745;22;20144;-82
2023/03/16 08:31:29;;;;;;;15.32;9.40;;;14.10;97.20;;;;;;6248859;22;20594;-82
2023/03/16 08:33:56;;;;;;;18.30;8.02;;;14.00;97.80;;;;;;6276671;22;20258;-80
2023/03/16 08:36:22;;;;;;;10.77;7.30;;;14.10;96.70;;;;;;6248509;22;20607;-83
2023/03/16 08:38:48;;;;;;;11.18;7.63;;;13.30;96.50;;;;;;6248941;22;20151;-86
2023/03/16 08:41:15;;;;;;;10.52;6.95;;;12.90;96.70;;;;;;6250544;22;20152;-83
2023/03/16 08:43:41;;;;;;;7.55;5.75;;;13.00;97.70;;;;;;6251146;22;20401;-82
2023/03/16 08:46:06;;;;;;;8.07;5.00;;;12.20;97.30;;;;;;6251149;22;20152;-80
2023/03/16 08:48:32;;;;;;;8.97;4.93;;;12.10;97.90;;;;;;6277823;22;20380;-84
2023/03/16 08:51:04;;;;;;;17.47;10.10;;;11.10;98.40;;;;;;6277872;22;20500;-82
2023/03/16 08:53:30;;;;;;;13.20;8.07;;;11.10;99.90;;;;;;6277870;22;20125;-81
2023/03/16 08:56:05;;;;;;;15.10;8.23;;;11.20;99.90;;;;;;6250833;22;20510;-81
2023/03/16 08:58:31;;;;;;;10.48;5.88;;;11.90;99.90;;;;;;6250962;22;20388;-81
2023/03/16 09:00:58;;;;;;;8.32;6.38;;;11.70;99.30;;;;;;6278183;22;20148;-81
2023/03/16 09:03:24;;;;;;;8.63;6.18;;;11.60;99.90;;;;;;6277753;22;20151;-83
2023/03/16 09:05:51;;;;;;;9.02;5.53;;;11.50;99.80;;;;;;6250389;22;20152;-82
2023/03/16 09:08:17;;;;;;;14.32;7.90;;;11.70;99.90;;;;;;6277188;22;20167;-81
2023/03/16 09:10:43;;;;;;;7.88;5.20;;;11.40;99.90;;;;;;6277197;22;20183;-82
2023/03/16 09:13:09;;;;;;;10.70;6.90;;;11.00;99.80;;;;;;6250998;22;20148;-80
2023/03/16 09:15:36;;;;;;;7.50;5.57;;;11.80;99.90;;;;;;6251836;22;20148;-82
2023/03/16 09:18:02;;;;;;;9.10;5.80;;;11.90;99.50;;;;;;6252382;22;20394;-82
2023/03/16 09:20:29;;;;;;;13.88;6.95;;;11.50;99.50;;;;;;6278871;22;20148;-83
2023/03/16 09:22:55;;;;;;;11.73;7.00;;;10.50;99.90;;;;;;6252250;22;20154;-83
2023/03/16 09:25:21;;;;;;;12.55;6.90;;;10.60;99.90;;;;;;6281480;22;20681;-83
2023/03/16 09:27:46;;;;;;;10.07;7.20;;;11.50;99.90;;;;;;6280310;22;20164;-79
2023/03/16 09:30:12;;;;;;;8.87;6.57;;;12.10;99.90;;;;;;6279352;22;20457;-81
2023/03/16 09:32:38;;;;;;;10.20;6.70;;;12.90;99.90;;;;;;6280075;22;20172;-82
2023/03/16 09:35:05;;;;;;;11.57;7.37;;;13.10;99.90;;;;;;6279501;22;20136;-83
2023/03/16 09:37:31;;;;;;;11.95;7.00;;;14.00;98.60;;;;;;6279266;22;20485;-81
2023/03/16 09:39:57;;;;;;;9.65;6.50;;;14.00;97.80;;;;;;6252986;22;20143;-81
2023/03/16 09:42:55;;;;;;;10.25;6.63;;;13.40;96.80;;;;;;6279072;22;20144;-82
2023/03/16 09:45:34;;;;;;;8.50;6.00;;;13.00;98.90;;;;;;6251086;22;20198;-80
2023/03/16 09:48:03;;;;;;;11.40;8.00;;;13.20;99.20;;;;;;6279026;22;20626;-81
2023/03/16 09:50:35;;;;;;;7.47;5.45;;;13.60;99.30;;;;;;6252024;22;20182;-80
2023/03/16 09:53:18;;;;;;;7.35;6.25;;;13.80;96.70;;;;;;6278647;22;20614;-82
2023/03/16 09:55:49;;;;;;;11.13;6.28;;;14.10;97.50;;;;;;6252198;22;20143;-81
2023/03/16 09:58:18;;;;;;;7.38;5.13;;;12.90;97.10;;;;;;6251895;22;20181;-80
2023/03/16 10:00:59;;;;;;;13.98;6.30;;;12.00;97.70;;;;;;6278828;22;20144;-80
2023/03/16 10:03:33;;;;;;;10.00;5.40;;;11.60;99.90;;;;;;6279558;22;20656;-82
2023/03/16 10:06:01;;;;;;;9.10;5.28;;;11.40;99.90;;;;;;6252425;22;20232;-80
2023/03/16 10:08:38;;;;;;;10.73;5.63;;;10.80;99.90;;;;;;6279359;22;20233;-82
2023/03/16 10:11:13;;;;;;;9.88;5.38;;;10.50;99.90;;;;;;6280497;22;20164;-81
2023/03/16 10:13:42;;;;;;;7.63;5.35;;;10.30;99.90;;;;;;6252648;22;20159;-81
2023/03/16 10:16:17;;;;;;;7.03;4.30;;;10.20;99.90;;;;;;6280652;22;20275;-82
2023/03/16 10:18:45;;;;;;;5.50;4.00;;;10.20;99.90;;;;;;6252975;22;20147;-82
2023/03/16 10:21:14;;;;;;;9.02;6.22;;;9.90;99.90;;;;;;6279959;22;20431;-83
2023/03/16 10:23:40;;;;;;;8.43;5.25;;;9.50;99.90;;;;;;6278645;22;20457;-82
2023/03/16 10:26:24;;;;;;;4.90;2.92;;;9.30;99.90;;;;;;6278477;22;20594;-81
2023/03/16 10:28:51;;;;;;;6.97;4.60;;;9.30;99.90;;;;;;6250944;22;20148;-81
2023/03/16 10:31:21;;;;;;;7.45;4.90;;;9.30;99.90;;;;;;6278065;22;20168;-83
2023/03/16 10:33:49;;;;;;;6.75;4.40;;;9.20;99.90;;;;;;6251358;22;20235;-81
2023/03/16 10:36:24;;;;;;;7.53;4.90;;;9.50;99.90;;;;;;6278343;22;20639;-83
2023/03/16 10:38:58;;;;;;;10.38;5.43;;;9.80;99.90;;;;;;6251212;22;20148;-81
2023/03/16 10:41:28;;;;;;;6.53;4.80;;;10.10;99.90;;;;;;6250848;22;20147;-80
2023/03/16 10:44:05;;;;;;;8.05;4.90;;;10.20;99.90;;;;;;6278993;22;20440;-80
2023/03/16 10:46:47;;;;;;;8.98;5.20;;;10.10;99.90;;;;;;6277291;22;20167;-78
2023/03/16 10:49:40;;;;;;;5.97;4.07;;;10.00;99.90;;;;;;6276391;22;20135;-80
2023/03/16 10:52:22;;;;;;;5.80;4.53;;;10.10;99.90;;;;;;6244210;22;20180;-84
2023/03/16 10:55:14;;;;;;;8.02;5.45;;;9.80;99.90;;;;;;6276028;22;20226;-80
2023/03/16 10:57:42;;;;;;;10.88;6.25;;;9.70;99.90;;;;;;6248463;22;20217;-82
2023/03/16 11:00:19;;;;;;;9.57;5.90;;;9.80;99.90;;;;;;6249930;22;20205;-80
2023/03/16 11:02:47;;;;;;;10.57;4.93;;;10.10;99.90;;;;;;6249520;22;20151;-77
2023/03/16 11:05:14;;;;;;;7.10;4.65;;;10.10;99.90;;;;;;6250458;22;20151;-81
2023/03/16 11:07:50;;;;;;;12.23;5.95;;;10.10;99.90;;;;;;6276060;22;20199;-82
2023/03/16 11:10:39;;;;;;;9.95;4.97;;;10.30;99.90;;;;;;6276895;22;20128;-80
2023/03/16 11:13:13;;;;;;;12.88;5.43;;;10.50;99.90;;;;;;6249442;22;20225;-82
2023/03/16 11:15:41;;;;;;;8.02;4.72;;;10.50;99.90;;;;;;6276497;22;20124;-82
2023/03/16 11:18:23;;;;;;;5.25;4.65;;;10.60;99.90;;;;;;6249526;22;20199;-82
2023/03/16 11:20:51;;;;;;;7.57;4.75;;;10.60;99.90;;;;;;6248384;22;20744;-80
2023/03/16 11:23:24;;;;;;;9.20;4.13;;;10.50;99.90;;;;;;6276365;22;20179;-81
2023/03/16 11:25:53;;;;;;;11.75;5.45;;;10.60;99.90;;;;;;6277232;22;20470;-81
2023/03/16 11:28:37;;;;;;;8.52;3.83;;;10.50;99.90;;;;;;6276116;22;20168;-80
2023/03/16 11:31:02;;;;;;;6.57;4.30;;;10.60;99.90;;;;;;6276548;22;20539;-80
2023/03/16 11:33:29;;;;;;;6.43;3.77;;;10.40;99.90;;;;;;6248378;22;20155;-81
2023/03/16 11:36:32;;;;;;;6.50;4.68;;;10.60;99.90;;;;;;6276082;22;20140;-83
2023/03/16 11:39:06;;;;;;;7.82;4.70;;;10.70;99.90;;;;;;6238482;22;20200;-82
2023/03/16 11:41:55;;;;;;;6.75;4.45;;;10.90;99.90;;;;;;6238813;22;20267;-84
2023/03/16 11:44:35;;;;;;;7.88;4.45;;;10.90;99.90;;;;;;6269392;22;20140;-83
2023/03/16 11:47:28;;;;;;;7.43;3.45;;;11.00;99.90;;;;;;6271010;22;20232;-81
2023/03/16 11:49:56;;;;;;;7.55;5.05;;;11.00;99.90;;;;;;6269704;22;20198;-82
2023/03/16 11:52:58;;;;;;;7.40;4.85;;;11.10;99.90;;;;;;6271686;22;20180;-83
2023/03/16 11:55:40;;;;;;;6.40;3.75;;;11.20;99.90;;;;;;6271033;22;20167;-82
2023/03/16 11:58:09;;;;;;;6.18;4.53;;;11.20;99.90;;;;;;6272819;22;20587;-81
2023/03/16 12:01:03;;;;;;;8.35;4.53;;;11.00;99.90;;;;;;6272790;22;20617;-85
2023/03/16 12:03:43;;;;;;;7.95;4.97;;;11.30;99.90;;;;;;6274246;22;20171;-81
2023/03/16 12:06:37;;;;;;;7.57;2.80;;;11.60;99.90;;;;;;6272316;22;20582;-81
2023/03/16 12:09:32;;;;;;;7.22;3.60;;;11.70;99.90;;;;;;6272432;22;20175;-83
2023/03/16 12:12:04;;;;;;;5.63;3.50;;;11.90;98.90;;;;;;6274307;22;20215;-85
2023/03/16 12:14:50;;;;;;;6.30;3.80;;;11.70;99.70;;;;;;6270192;22;20155;-84
2023/03/16 12:17:28;;;;;;;5.00;3.88;;;11.80;98.60;;;;;;6273717;22;20132;-82
2023/03/16 12:20:05;;;;;;;4.32;3.00;;;12.00;97.60;;;;;;6272116;22;20534;-83
2023/03/16 12:22:40;;;;;;;13.18;4.47;;;12.20;98.50;;;;;;6275255;22;20667;-83
2023/03/16 12:25:20;;;;;;;6.28;3.40;;;12.10;98.30;;;;;;6283075;22;20182;-82
2023/03/16 12:27:53;;;;;;;5.05;3.55;;;12.30;97.70;;;;;;6282057;22;20155;-82
2023/03/16 12:30:26;;;;;;;4.50;2.85;;;12.40;97.70;;;;;;6291484;22;20143;-81
2023/03/16 12:33:14;;;;;;;5.38;2.72;;;12.50;97.00;;;;;;6283156;22;20222;-81
2023/03/16 12:36:01;;;;;;;5.82;3.75;;;12.50;96.10;;;;;;6276253;22;20716;-84
2023/03/16 12:38:45;;;;;;;6.05;3.50;;;12.60;96.00;;;;;;6273825;22;20167;-84
2023/03/16 12:41:50;;;;;;;7.10;3.45;;;12.50;96.10;;;;;;6277065;22;20136;-83
2023/03/16 12:44:25;;;;;;;3.63;3.13;;;12.40;95.30;;;;;;6277130;22;20166;-82
2023/03/16 12:47:14;;;;;;;6.95;3.30;;;12.40;96.20;;;;;;6274050;22;20155;-84
2023/03/16 12:49:40;;;;;;;9.27;4.60;;;12.50;96.20;;;;;;6277129;22;20171;-82
2023/03/16 12:52:09;;;;;;;6.90;3.65;;;12.60;94.90;;;;;;6277896;22;20175;-83
2023/03/16 12:54:35;;;;;;;2.92;2.30;;;;;;;;;;6276394;22;20159;-80
2023/03/16 12:57:06;;;;;;;6.85;3.40;;;12.60;96.70;;;;;;6278163;22;20151;-81